Time;durP1;ratioP1;P1;durP2;ratioP2;P2;SDS_P1;SDS_P2;PMS_P1;PMS_P2;Temp;Humidity;BMP_temperature;BMP_pressure;BME280_temperature;BME280_humidity;BME280_pressure;Samples;Min_cycle;Max_cycle;Signal;HPM_P1;HPM_P2
2022/06/15 03:02:19;;;;;;;15.23;7.38;;;11.70;99.90;;;;;;6242641;22;19916;-81
2022/06/15 03:04:46;;;;;;;13.27;7.15;;;11.60;99.90;;;;;;6223105;23;20012;-81
2022/06/15 03:07:13;;;;;;;20.60;7.97;;;11.60;99.90;;;;;;6249938;23;20008;-82
2022/06/15 03:09:39;;;;;;;16.25;7.28;;;11.60;99.90;;;;;;6219910;23;20016;-82
2022/06/15 03:12:06;;;;;;;13.52;7.10;;;11.60;99.90;;;;;;6249404;23;20016;-82
2022/06/15 03:14:32;;;;;;;13.98;7.10;;;11.60;99.90;;;;;;6222643;23;20012;-82
2022/06/15 03:16:58;;;;;;;14.00;6.70;;;11.60;99.90;;;;;;6221830;23;20069;-82
2022/06/15 03:19:26;;;;;;;13.10;6.68;;;11.60;99.90;;;;;;6249559;23;20008;-83
2022/06/15 03:21:52;;;;;;;12.73;7.13;;;11.60;99.90;;;;;;6249591;23;20023;-81
2022/06/15 03:24:18;;;;;;;12.70;6.97;;;11.60;99.90;;;;;;6222317;23;20016;-82
2022/06/15 03:26:43;;;;;;;12.50;6.88;;;11.60;99.90;;;;;;6198358;23;20012;-82
2022/06/15 03:29:09;;;;;;;12.25;7.30;;;11.50;99.90;;;;;;6249452;23;20054;-81
2022/06/15 03:31:35;;;;;;;21.45;8.30;;;11.50;99.90;;;;;;6222646;23;20040;-81
2022/06/15 03:34:00;;;;;;;14.88;7.65;;;11.50;99.90;;;;;;6217451;23;20342;-81
2022/06/15 03:36:26;;;;;;;14.05;7.15;;;11.50;99.90;;;;;;6217324;23;20339;-80
2022/06/15 03:38:52;;;;;;;14.18;6.80;;;11.50;99.90;;;;;;6236587;23;20012;-81
2022/06/15 03:41:19;;;;;;;11.50;6.82;;;11.40;99.90;;;;;;6249306;23;20004;-82
2022/06/15 03:43:45;;;;;;;16.95;8.48;;;11.40;99.90;;;;;;6222494;23;20012;-82
2022/06/15 03:46:12;;;;;;;14.45;7.82;;;11.40;99.90;;;;;;6196940;23;20012;-81
2022/06/15 03:48:37;;;;;;;12.27;6.60;;;11.40;99.90;;;;;;6249006;23;20004;-82
2022/06/15 03:51:04;;;;;;;14.68;6.68;;;11.40;99.90;;;;;;6222232;23;20408;-81
2022/06/15 03:53:29;;;;;;;13.77;6.50;;;11.40;99.90;;;;;;6217677;23;20062;-81
2022/06/15 03:55:55;;;;;;;12.55;7.57;;;11.40;99.90;;;;;;6222018;23;20051;-81
2022/06/15 03:58:21;;;;;;;11.65;7.40;;;11.40;99.90;;;;;;6222044;23;20012;-82
2022/06/15 04:00:48;;;;;;;14.18;6.63;;;11.40;99.90;;;;;;6221525;23;20016;-79
2022/06/15 04:03:13;;;;;;;11.98;6.20;;;11.40;99.90;;;;;;6222421;23;20012;-80
2022/06/15 04:05:51;;;;;;;12.02;6.63;;;11.40;99.90;;;;;;6222106;23;20016;-83
2022/06/15 04:08:42;;;;;;;16.55;7.00;;;11.50;99.90;;;;;;6221779;23;20294;-82
2022/06/15 04:11:09;;;;;;;13.70;6.63;;;11.50;99.90;;;;;;6222353;23;20283;-82
2022/06/15 04:13:36;;;;;;;11.90;6.95;;;11.50;99.90;;;;;;6221624;23;20047;-81
2022/06/15 04:16:05;;;;;;;14.32;6.72;;;11.50;99.90;;;;;;6196735;23;20023;-82
2022/06/15 04:18:31;;;;;;;15.30;6.88;;;11.50;99.90;;;;;;6221943;23;20342;-81
2022/06/15 04:20:56;;;;;;;11.50;6.60;;;11.40;99.90;;;;;;6248810;23;20008;-82
2022/06/15 04:23:22;;;;;;;12.70;7.28;;;11.40;99.90;;;;;;6221629;23;20027;-81
2022/06/15 04:25:52;;;;;;;15.32;7.25;;;11.40;99.90;;;;;;6221435;23;20020;-81
2022/06/15 04:28:20;;;;;;;13.27;7.20;;;11.40;99.90;;;;;;6249382;23;20053;-81
2022/06/15 04:30:46;;;;;;;15.90;7.22;;;11.40;99.90;;;;;;6248679;23;20016;-81
2022/06/15 04:33:13;;;;;;;12.85;7.38;;;11.40;99.90;;;;;;6221562;23;20016;-81
2022/06/15 04:35:39;;;;;;;15.85;8.00;;;11.40;99.90;;;;;;6196883;23;20433;-81
2022/06/15 04:38:06;;;;;;;13.55;6.90;;;11.40;99.90;;;;;;6221602;23;20431;-81
2022/06/15 04:40:32;;;;;;;14.20;7.13;;;11.40;99.90;;;;;;6221044;23;20509;-81
2022/06/15 04:42:58;;;;;;;10.88;6.75;;;11.40;99.90;;;;;;6248518;23;20012;-82
2022/06/15 04:45:24;;;;;;;13.15;7.07;;;11.40;99.90;;;;;;6248291;23;20012;-82
2022/06/15 04:47:49;;;;;;;14.65;7.68;;;11.50;99.90;;;;;;6246615;23;20023;-81
2022/06/15 04:50:15;;;;;;;13.45;7.15;;;11.50;99.90;;;;;;6248062;23;20012;-82
2022/06/15 04:52:43;;;;;;;13.18;7.95;;;11.50;99.90;;;;;;6221629;23;20016;-82
2022/06/15 04:55:18;;;;;;;11.80;6.80;;;11.50;99.90;;;;;;6221876;23;20030;-82
2022/06/15 04:57:44;;;;;;;15.43;7.75;;;11.50;99.90;;;;;;6221631;23;20008;-82
2022/06/15 05:00:14;;;;;;;13.45;6.55;;;11.50;99.90;;;;;;6221422;23;20020;-82
2022/06/15 05:02:40;;;;;;;13.95;7.25;;;11.60;99.90;;;;;;6220008;23;20013;-81
2022/06/15 05:05:06;;;;;;;13.23;7.32;;;11.60;99.90;;;;;;6221304;23;20012;-81
2022/06/15 05:07:32;;;;;;;14.02;7.20;;;11.60;99.90;;;;;;6221198;23;20019;-81
2022/06/15 05:09:59;;;;;;;14.40;6.88;;;11.60;99.90;;;;;;6221065;23;20070;-81
2022/06/15 05:12:25;;;;;;;14.82;7.13;;;11.70;99.90;;;;;;6220740;23;20041;-81
2022/06/15 05:14:51;;;;;;;13.07;7.05;;;11.70;99.90;;;;;;6196005;23;20086;-81
2022/06/15 05:17:18;;;;;;;11.90;6.82;;;11.70;99.90;;;;;;6221142;23;20453;-81
2022/06/15 05:19:44;;;;;;;17.75;8.60;;;11.80;99.90;;;;;;6247104;23;20008;-82
2022/06/15 05:22:10;;;;;;;13.88;7.25;;;11.90;99.90;;;;;;6220255;23;20456;-81
2022/06/15 05:24:36;;;;;;;13.43;6.57;;;11.90;99.90;;;;;;6220081;23;20095;-81
2022/06/15 05:27:03;;;;;;;18.00;7.38;;;12.00;99.90;;;;;;6220001;23;20012;-80
2022/06/15 05:29:28;;;;;;;13.52;6.90;;;12.00;99.90;;;;;;6246838;23;20065;-80
2022/06/15 05:31:54;;;;;;;11.35;6.95;;;12.20;99.90;;;;;;6194675;23;20019;-81
2022/06/15 05:34:20;;;;;;;14.13;6.70;;;12.20;99.90;;;;;;6220510;23;20094;-82
2022/06/15 05:36:47;;;;;;;14.10;6.78;;;12.30;99.90;;;;;;6220967;23;20020;-81
2022/06/15 05:39:13;;;;;;;12.50;7.05;;;12.40;99.90;;;;;;6221477;23;20016;-81
2022/06/15 05:41:39;;;;;;;10.98;6.40;;;12.50;99.90;;;;;;6221227;23;20439;-81
2022/06/15 05:44:27;;;;;;;14.93;6.68;;;12.50;99.90;;;;;;6221079;23;20023;-82
2022/06/15 05:46:57;;;;;;;14.32;7.07;;;12.50;99.90;;;;;;6248512;23;20012;-82
2022/06/15 05:49:23;;;;;;;15.52;7.28;;;12.60;99.90;;;;;;6248458;23;20104;-81
2022/06/15 05:51:49;;;;;;;15.93;7.40;;;12.60;99.90;;;;;;6221352;23;20016;-81
2022/06/15 05:54:15;;;;;;;12.57;6.35;;;12.60;99.90;;;;;;6221643;23;20068;-82
2022/06/15 05:56:40;;;;;;;10.23;7.05;;;12.60;99.90;;;;;;6248986;23;20050;-82
2022/06/15 05:59:06;;;;;;;14.13;6.53;;;12.70;99.90;;;;;;6222246;23;20342;-81
2022/06/15 06:01:34;;;;;;;13.50;6.22;;;12.70;99.90;;;;;;6232947;23;20012;-82
2022/06/15 06:04:00;;;;;;;14.50;5.97;;;12.80;99.90;;;;;;6217572;23;20016;-81
2022/06/15 06:06:28;;;;;;;10.73;6.13;;;12.90;99.90;;;;;;6215644;23;20032;-81
2022/06/15 06:08:53;;;;;;;9.27;5.20;;;12.90;99.90;;;;;;6215819;23;20017;-82
2022/06/15 06:11:20;;;;;;;10.80;5.55;;;13.00;99.90;;;;;;6218328;23;20054;-81
2022/06/15 06:13:47;;;;;;;14.25;4.95;;;13.00;99.90;;;;;;6215951;23;20050;-80
2022/06/15 06:16:13;;;;;;;10.60;5.18;;;13.10;99.90;;;;;;6215489;23;20016;-82
2022/06/15 06:18:38;;;;;;;8.68;4.32;;;13.10;99.90;;;;;;6216137;23;20146;-82
2022/06/15 06:21:05;;;;;;;8.80;5.15;;;13.20;99.90;;;;;;6216709;23;20062;-82
2022/06/15 06:23:32;;;;;;;13.02;4.40;;;13.30;99.90;;;;;;6215817;23;20017;-82
2022/06/15 06:25:57;;;;;;;9.10;4.13;;;13.40;99.90;;;;;;6215500;23;20343;-82
2022/06/15 06:28:41;;;;;;;7.90;4.13;;;13.40;99.90;;;;;;6191171;23;20016;-83
2022/06/15 06:31:10;;;;;;;6.85;3.63;;;13.50;99.90;;;;;;6190348;23;20013;-83
2022/06/15 06:33:37;;;;;;;7.82;4.22;;;13.50;99.90;;;;;;6223338;23;20023;-82
2022/06/15 06:36:05;;;;;;;10.20;4.22;;;13.60;99.90;;;;;;6227176;23;20009;-82
2022/06/15 06:38:31;;;;;;;12.48;3.97;;;13.60;99.90;;;;;;6227777;23;20055;-82
2022/06/15 06:40:57;;;;;;;7.97;3.65;;;13.70;99.90;;;;;;6239190;23;20016;-78
2022/06/15 06:43:23;;;;;;;7.70;3.67;;;13.80;99.90;;;;;;6239886;23;20012;-79
2022/06/15 06:45:49;;;;;;;11.40;3.28;;;13.80;99.90;;;;;;6217049;23;20071;-82
2022/06/15 06:48:16;;;;;;;10.70;3.90;;;13.90;99.90;;;;;;6191638;23;20438;-82
2022/06/15 06:50:42;;;;;;;7.97;3.63;;;13.90;99.90;;;;;;6216039;23;20012;-81
2022/06/15 06:53:10;;;;;;;8.18;3.75;;;14.10;99.90;;;;;;6216343;23;20084;-83
2022/06/15 06:55:35;;;;;;;8.73;3.90;;;14.10;99.90;;;;;;6217868;23;20016;-79
2022/06/15 06:58:02;;;;;;;10.93;3.47;;;14.20;99.90;;;;;;6215206;23;20012;-80
2022/06/15 07:00:30;;;;;;;6.63;3.17;;;14.30;99.90;;;;;;6218735;23;20005;-81
2022/06/15 07:02:58;;;;;;;10.85;3.47;;;14.30;99.90;;;;;;6220903;23;20070;-81
2022/06/15 07:05:24;;;;;;;9.68;3.13;;;14.40;99.90;;;;;;6248213;23;20334;-82
2022/06/15 07:07:49;;;;;;;9.50;3.38;;;14.40;99.90;;;;;;6221120;23;20051;-82
2022/06/15 07:10:15;;;;;;;7.45;2.83;;;14.50;99.90;;;;;;6220965;23;20015;-82
2022/06/15 07:12:42;;;;;;;9.32;3.13;;;14.60;99.90;;;;;;6220488;23;20043;-82
2022/06/15 07:15:10;;;;;;;7.35;3.13;;;14.70;99.90;;;;;;6221072;23;20062;-82
2022/06/15 07:17:35;;;;;;;6.03;2.95;;;14.70;99.90;;;;;;6220603;23;20023;-82
2022/06/15 07:20:02;;;;;;;8.02;2.95;;;14.80;99.90;;;;;;6219957;23;20016;-80
2022/06/15 07:22:28;;;;;;;16.95;4.53;;;14.90;99.90;;;;;;6219980;23;20031;-81
2022/06/15 07:24:53;;;;;;;8.43;3.20;;;15.00;99.90;;;;;;6247636;23;20004;-81
2022/06/15 07:27:19;;;;;;;5.32;2.67;;;15.10;99.90;;;;;;6246842;23;20012;-82
2022/06/15 07:29:46;;;;;;;7.65;2.75;;;15.20;99.90;;;;;;6247229;23;20019;-81
2022/06/15 07:32:14;;;;;;;6.88;2.90;;;15.20;99.90;;;;;;6194981;23;20095;-81
2022/06/15 07:34:40;;;;;;;9.20;2.80;;;15.30;99.90;;;;;;6220958;23;20354;-82
2022/06/15 07:37:07;;;;;;;7.93;2.97;;;15.40;99.90;;;;;;6221680;23;20023;-82
2022/06/15 07:39:33;;;;;;;6.70;2.85;;;15.50;99.90;;;;;;6221488;23;20082;-81
2022/06/15 07:41:59;;;;;;;7.38;3.20;;;15.60;99.90;;;;;;6248709;23;20012;-81
2022/06/15 07:44:27;;;;;;;10.73;3.03;;;15.70;99.90;;;;;;6221604;23;20088;-81
2022/06/15 07:49:54;;;;;;;12.70;3.40;;;15.90;99.90;;;;;;6246921;23;20055;-81
2022/06/15 07:52:33;;;;;;;9.35;3.30;;;16.00;99.90;;;;;;6221552;23;20190;-81
2022/06/15 07:54:59;;;;;;;9.95;2.83;;;16.10;99.90;;;;;;6221692;23;20023;-81
2022/06/15 07:57:24;;;;;;;19.38;6.10;;;16.20;99.90;;;;;;6248588;23;20051;-81
2022/06/15 07:59:50;;;;;;;70.30;18.48;;;16.40;99.90;;;;;;6221165;23;20019;-79
2022/06/15 08:02:17;;;;;;;7.13;2.08;;;16.60;99.90;;;;;;6220858;23;20016;-81
2022/06/15 08:04:43;;;;;;;8.60;2.88;;;16.70;99.90;;;;;;6248563;23;20373;-81
2022/06/15 08:07:12;;;;;;;8.25;2.78;;;16.80;99.90;;;;;;6221551;23;20043;-80
2022/06/15 08:09:38;;;;;;;9.35;2.15;;;16.90;99.90;;;;;;6221388;23;20137;-81
2022/06/15 08:12:18;;;;;;;11.82;2.28;;;17.00;99.90;;;;;;6221481;23;20065;-82
2022/06/15 08:14:48;;;;;;;10.75;2.33;;;17.00;99.90;;;;;;6221411;23;20020;-82
2022/06/15 08:17:21;;;;;;;12.32;3.08;;;17.10;99.90;;;;;;6221379;23;20023;-80
2022/06/15 08:19:58;;;;;;;7.43;3.00;;;17.10;99.90;;;;;;6221525;23;20012;-83
2022/06/15 08:22:24;;;;;;;5.20;2.22;;;17.20;99.90;;;;;;6247815;23;20442;-82
2022/06/15 08:24:51;;;;;;;9.70;2.45;;;17.30;99.90;;;;;;6221132;23;20047;-82
2022/06/15 08:27:19;;;;;;;11.52;2.88;;;17.60;99.90;;;;;;6221162;23;20039;-80
2022/06/15 08:29:47;;;;;;;7.55;2.17;;;17.80;99.90;;;;;;6248357;23;20008;-81
2022/06/15 08:32:14;;;;;;;6.43;2.22;;;17.90;99.90;;;;;;6247690;23;20004;-82
2022/06/15 08:34:40;;;;;;;11.48;2.78;;;17.90;99.90;;;;;;6221489;23;20330;-82
2022/06/15 08:37:09;;;;;;;6.88;2.42;;;17.80;99.90;;;;;;6221105;23;20018;-79
2022/06/15 08:39:36;;;;;;;8.93;2.50;;;17.80;99.90;;;;;;6247664;23;20035;-81
2022/06/15 08:46:15;;;;;;;5.93;2.40;;;17.70;99.90;;;;;;6278425;22;20018;-81
2022/06/15 08:56:28;;;;;;;9.60;3.13;;;17.80;99.90;;;;;;6118966;23;20025;-81
2022/06/15 08:59:08;;;;;;;8.82;3.05;;;18.10;99.90;;;;;;6114671;23;20042;-83
2022/06/15 09:02:00;;;;;;;6.32;2.72;;;18.40;99.90;;;;;;6141994;23;20018;-80
2022/06/15 09:04:37;;;;;;;6.00;2.42;;;18.60;99.90;;;;;;6105962;23;20014;-82
2022/06/15 09:07:44;;;;;;;5.88;2.35;;;18.80;99.90;;;;;;6155161;23;20015;-83
2022/06/15 09:10:39;;;;;;;7.43;2.55;;;19.00;99.90;;;;;;6105985;23;20057;-79
2022/06/15 09:13:32;;;;;;;7.23;3.10;;;19.20;99.90;;;;;;6129967;23;20040;-79
2022/06/15 09:16:09;;;;;;;4.90;2.40;;;19.30;99.90;;;;;;6131821;23;20018;-79
2022/06/15 09:18:41;;;;;;;6.05;2.50;;;19.30;99.90;;;;;;6271723;22;20012;-82
2022/06/15 09:21:43;;;;;;;7.40;2.80;;;19.30;99.90;;;;;;6209819;23;20026;-79
2022/06/15 09:24:20;;;;;;;7.20;2.72;;;19.20;99.90;;;;;;6107201;23;20045;-82
2022/06/15 09:26:54;;;;;;;5.28;2.65;;;19.20;99.90;;;;;;6219855;23;20054;-82
2022/06/15 09:29:37;;;;;;;7.68;2.80;;;19.30;99.90;;;;;;6246102;23;20346;-82
2022/06/15 09:32:25;;;;;;;5.22;2.40;;;19.40;99.90;;;;;;6220406;23;20093;-82
2022/06/15 09:35:13;;;;;;;5.32;2.60;;;19.70;99.90;;;;;;6247310;23;20008;-81
2022/06/15 09:37:41;;;;;;;6.38;2.50;;;19.90;99.90;;;;;;6196680;23;20418;-80
2022/06/15 09:40:08;;;;;;;7.65;2.42;;;20.10;99.90;;;;;;6246827;23;20026;-81
2022/06/15 09:42:58;;;;;;;6.28;2.15;;;20.00;99.90;;;;;;6195032;23;20009;-82
2022/06/15 09:45:31;;;;;;;11.20;3.38;;;19.90;99.90;;;;;;6195356;23;20008;-82
2022/06/15 09:48:16;;;;;;;10.52;2.55;;;20.00;99.90;;;;;;6245699;23;20015;-82
2022/06/15 09:50:45;;;;;;;5.97;2.50;;;20.30;99.90;;;;;;6221261;23;20012;-82
2022/06/15 09:53:39;;;;;;;7.60;2.47;;;20.50;99.90;;;;;;6247636;23;20441;-81
2022/06/15 09:56:12;;;;;;;6.30;2.13;;;20.50;99.90;;;;;;6196352;23;20326;-81
2022/06/15 09:58:42;;;;;;;5.95;2.28;;;20.30;99.90;;;;;;6246579;23;20069;-82
2022/06/15 10:01:09;;;;;;;4.95;1.90;;;20.40;99.90;;;;;;6247415;23;20016;-81
2022/06/15 10:03:43;;;;;;;6.07;1.90;;;20.70;99.90;;;;;;6195327;23;20099;-81
2022/06/15 10:06:24;;;;;;;5.97;2.28;;;20.90;99.90;;;;;;6247443;23;20284;-82
2022/06/15 10:08:52;;;;;;;5.22;2.05;;;21.10;99.90;;;;;;6195546;23;20016;-82
2022/06/15 10:11:36;;;;;;;5.63;1.83;;;21.20;99.90;;;;;;6186551;23;20427;-81
2022/06/15 10:14:34;;;;;;;8.18;2.10;;;21.30;99.90;;;;;;6171263;23;20023;-82
2022/06/15 10:17:24;;;;;;;5.25;2.28;;;21.40;99.90;;;;;;6190066;23;20066;-82
2022/06/15 10:19:52;;;;;;;3.90;1.77;;;21.50;99.90;;;;;;6189478;23;20012;-81
2022/06/15 10:22:26;;;;;;;9.23;2.00;;;21.60;99.90;;;;;;6217057;23;20016;-80
2022/06/15 10:24:53;;;;;;;6.55;2.28;;;21.70;99.90;;;;;;6217195;23;20044;-83
2022/06/15 10:27:34;;;;;;;8.63;2.20;;;21.80;99.90;;;;;;6217092;23;20020;-84
2022/06/15 10:30:11;;;;;;;7.28;2.65;;;21.90;99.90;;;;;;6240658;23;20381;-82
2022/06/15 10:33:02;;;;;;;6.97;2.38;;;22.10;99.90;;;;;;6214724;23;20077;-81
2022/06/15 10:35:34;;;;;;;4.93;2.05;;;22.20;99.90;;;;;;6212622;23;20018;-80
2022/06/15 10:38:04;;;;;;;4.05;2.25;;;21.90;99.90;;;;;;6189774;23;20058;-81
2022/06/15 10:40:36;;;;;;;6.60;2.40;;;21.50;99.90;;;;;;6189702;23;20430;-81
2022/06/15 10:43:02;;;;;;;5.10;2.00;;;21.50;99.90;;;;;;6216024;23;20021;-81
2022/06/15 10:45:40;;;;;;;7.90;2.03;;;21.60;99.90;;;;;;6215019;23;20016;-82
2022/06/15 10:48:29;;;;;;;5.10;1.92;;;21.90;99.90;;;;;;6214961;23;20013;-82
2022/06/15 10:50:58;;;;;;;6.43;2.08;;;22.20;99.90;;;;;;6214517;23;20020;-82
2022/06/15 10:53:38;;;;;;;5.00;1.92;;;22.40;99.90;;;;;;6214914;23;20099;-81
2022/06/15 11:02:06;;;;;;;4.50;2.15;;;22.60;99.90;;;;;;6214831;23;20056;-83
2022/06/15 11:04:55;;;;;;;5.28;1.80;;;22.60;99.90;;;;;;6212633;23;20048;-80
2022/06/15 11:07:20;;;;;;;5.20;1.90;;;22.60;99.90;;;;;;6189170;23;20013;-82
2022/06/15 11:09:55;;;;;;;2.92;1.67;;;22.70;99.90;;;;;;6215793;23;20082;-81
2022/06/15 11:12:35;;;;;;;5.13;1.90;;;22.80;99.90;;;;;;6217846;23;20012;-83
2022/06/15 11:15:13;;;;;;;5.80;2.13;;;22.90;99.90;;;;;;6216770;23;20327;-83
2022/06/15 11:18:03;;;;;;;5.28;1.80;;;22.80;99.90;;;;;;6242062;23;20095;-82
2022/06/15 11:21:05;;;;;;;6.97;2.10;;;22.50;99.90;;;;;;6216624;23;20142;-83
2022/06/15 11:23:58;;;;;;;4.38;1.88;;;22.20;99.90;;;;;;6214843;23;20023;-81
2022/06/15 11:26:54;;;;;;;6.95;2.20;;;22.30;99.90;;;;;;6191812;23;20435;-83
2022/06/15 11:29:53;;;;;;;5.97;1.92;;;22.60;99.90;;;;;;6191640;23;20012;-80
2022/06/15 11:32:30;;;;;;;6.45;1.70;;;22.80;99.90;;;;;;6242158;23;20339;-82
2022/06/15 11:35:08;;;;;;;4.68;2.03;;;22.70;99.90;;;;;;6219065;23;20009;-81
2022/06/15 11:38:16;;;;;;;6.38;2.10;;;22.50;99.90;;;;;;6218200;23;20438;-83
2022/06/15 11:40:53;;;;;;;5.97;1.90;;;22.60;99.90;;;;;;6241069;23;20442;-83
2022/06/15 11:43:21;;;;;;;5.20;2.13;;;22.70;99.90;;;;;;6191599;23;20091;-82
2022/06/15 11:45:47;;;;;;;4.63;2.08;;;22.70;99.90;;;;;;6191721;23;20051;-83
2022/06/15 11:48:27;;;;;;;7.38;2.10;;;22.80;99.90;;;;;;6216970;23;20016;-80
2022/06/15 11:51:10;;;;;;;5.72;2.08;;;22.90;99.90;;;;;;6216594;23;20391;-81
2022/06/15 11:53:55;;;;;;;5.85;1.58;;;23.10;99.90;;;;;;6218185;23;20008;-82
2022/06/15 11:56:22;;;;;;;8.10;2.08;;;23.30;99.90;;;;;;6216699;23;20017;-83
2022/06/15 11:59:01;;;;;;;7.45;2.05;;;23.40;99.90;;;;;;6241568;23;20088;-81
2022/06/15 12:01:35;;;;;;;3.95;1.60;;;23.40;99.90;;;;;;6241366;23;20012;-80
2022/06/15 12:04:27;;;;;;;5.82;2.35;;;23.40;99.90;;;;;;6241677;23;20455;-81
2022/06/15 12:07:14;;;;;;;5.28;1.90;;;23.50;99.90;;;;;;6241637;23;20039;-83
2022/06/15 12:09:57;;;;;;;4.38;2.22;;;23.70;99.90;;;;;;6219172;23;20087;-82
2022/06/15 12:12:38;;;;;;;8.40;1.90;;;23.90;99.90;;;;;;6241396;23;20355;-82
2022/06/15 12:15:33;;;;;;;6.22;2.00;;;24.00;99.90;;;;;;6216225;23;20067;-82
2022/06/15 12:18:15;;;;;;;5.97;1.92;;;24.10;99.50;;;;;;6216301;23;20091;-81
2022/06/15 12:20:44;;;;;;;4.00;1.35;;;24.10;98.40;;;;;;6217213;23;20032;-82
2022/06/15 12:23:27;;;;;;;4.28;1.60;;;24.20;99.60;;;;;;6216031;23;20087;-81
2022/06/15 12:25:58;;;;;;;5.13;2.17;;;24.30;98.70;;;;;;6215727;23;20080;-82
2022/06/15 12:28:35;;;;;;;5.32;2.00;;;24.30;97.20;;;;;;6217464;23;20009;-82
2022/06/15 12:31:19;;;;;;;3.78;1.40;;;24.30;98.00;;;;;;6217707;23;20012;-82
2022/06/15 12:33:59;;;;;;;6.32;1.55;;;24.50;98.70;;;;;;6241937;23;20017;-81
2022/06/15 12:36:38;;;;;;;4.55;1.60;;;24.60;97.70;;;;;;6216244;23;20055;-82
2022/06/15 12:39:24;;;;;;;4.95;1.60;;;24.60;96.80;;;;;;6218001;23;20017;-82
2022/06/15 12:44:57;;;;;;;5.32;1.60;;;24.50;97.60;;;;;;6215977;23;19970;-82
2022/06/15 12:47:26;;;;;;;5.10;1.90;;;24.60;96.70;;;;;;6241628;23;20016;-82
2022/06/15 12:50:04;;;;;;;6.43;1.63;;;24.30;95.20;;;;;;6215916;23;20076;-83
2022/06/15 12:52:44;;;;;;;3.63;2.00;;;24.40;95.30;;;;;;6218185;23;20017;-82
2022/06/15 12:55:33;;;;;;;6.93;1.90;;;24.40;96.60;;;;;;6241159;23;20020;-82
2022/06/15 12:58:15;;;;;;;4.35;1.83;;;24.50;94.60;;;;;;6217176;23;20407;-82
2022/06/15 13:00:59;;;;;;;6.43;2.25;;;24.60;97.20;;;;;;6217851;23;20505;-82
2022/06/15 13:03:36;;;;;;;5.93;2.05;;;24.70;96.00;;;;;;6216496;23;20017;-82
2022/06/15 13:06:24;;;;;;;4.53;1.77;;;24.70;95.90;;;;;;6217701;23;20008;-81
2022/06/15 13:09:20;;;;;;;4.35;1.75;;;24.90;96.40;;;;;;6241101;23;20015;-81
2022/06/15 13:12:00;;;;;;;5.43;1.90;;;24.90;94.30;;;;;;6215584;23;20019;-82
2022/06/15 13:14:31;;;;;;;6.45;1.77;;;25.00;94.40;;;;;;6218709;23;20108;-80
2022/06/15 13:17:09;;;;;;;4.60;1.90;;;24.90;94.00;;;;;;6219357;23;20016;-82
2022/06/15 13:19:37;;;;;;;4.38;2.28;;;24.90;94.70;;;;;;6220407;23;20370;-82
2022/06/15 13:22:07;;;;;;;5.28;1.90;;;24.90;92.50;;;;;;6221395;23;20091;-81
2022/06/15 13:24:53;;;;;;;4.88;2.15;;;24.90;92.90;;;;;;6222749;23;20040;-80
2022/06/15 13:27:23;;;;;;;4.20;1.92;;;24.90;90.10;;;;;;6237530;23;20012;-83
2022/06/15 13:30:09;;;;;;;4.35;1.90;;;24.70;94.20;;;;;;6239052;23;20016;-80
2022/06/15 13:33:11;;;;;;;5.10;1.88;;;24.90;95.90;;;;;;6259779;23;20066;-82
2022/06/15 13:35:41;;;;;;;4.88;1.85;;;25.10;95.40;;;;;;6211836;23;20020;-81
2022/06/15 13:38:27;;;;;;;4.88;2.15;;;25.30;95.70;;;;;;6218882;23;20027;-79
2022/06/15 13:40:58;;;;;;;8.38;2.38;;;25.30;94.20;;;;;;6217273;23;20016;-81
2022/06/15 13:43:48;;;;;;;5.00;2.08;;;25.30;91.50;;;;;;6216351;23;20020;-82
2022/06/15 13:46:29;;;;;;;5.85;1.90;;;25.20;92.00;;;;;;6208329;23;20443;-81
2022/06/15 13:49:24;;;;;;;3.38;1.67;;;25.30;91.90;;;;;;6216085;23;20020;-82
2022/06/15 13:52:00;;;;;;;4.55;2.00;;;25.30;93.50;;;;;;6234182;23;20013;-82
2022/06/15 13:54:50;;;;;;;3.25;1.50;;;25.40;93.40;;;;;;6218825;23;20020;-81
2022/06/15 13:57:37;;;;;;;5.05;2.20;;;25.50;93.50;;;;;;6217424;23;20015;-83
2022/06/15 14:00:12;;;;;;;6.70;2.22;;;25.70;95.20;;;;;;6215549;23;20101;-81
2022/06/15 14:03:00;;;;;;;5.22;2.10;;;25.60;92.90;;;;;;6215514;23;20024;-83
2022/06/15 14:05:45;;;;;;;6.13;2.63;;;25.50;91.30;;;;;;6215743;23;20458;-82
2022/06/15 14:08:29;;;;;;;4.80;2.20;;;25.40;94.20;;;;;;6215759;23;20442;-82
2022/06/15 14:11:05;;;;;;;3.80;1.70;;;25.40;93.70;;;;;;6215417;23;20150;-81
2022/06/15 14:13:37;;;;;;;5.03;1.67;;;25.50;92.90;;;;;;6215731;23;20284;-81
2022/06/15 14:16:21;;;;;;;5.13;1.75;;;25.50;91.70;;;;;;6215439;23;20066;-82
2022/06/15 14:18:56;;;;;;;5.75;1.83;;;25.40;91.10;;;;;;6215572;23;20019;-82
2022/06/15 14:21:23;;;;;;;6.70;2.75;;;25.30;91.60;;;;;;6215226;23;20346;-82
2022/06/15 14:23:51;;;;;;;6.28;2.60;;;25.30;94.50;;;;;;6215049;23;20019;-82
2022/06/15 14:26:20;;;;;;;5.28;2.13;;;25.40;95.70;;;;;;6240113;23;20450;-81
2022/06/15 14:29:05;;;;;;;6.70;3.03;;;25.40;95.60;;;;;;6216518;23;20044;-82
2022/06/15 14:31:34;;;;;;;6.05;2.70;;;25.30;95.80;;;;;;6240493;23;20447;-83
2022/06/15 14:34:12;;;;;;;5.43;2.50;;;25.30;95.70;;;;;;6240470;23;20023;-82
2022/06/15 14:36:46;;;;;;;6.55;2.90;;;25.20;98.00;;;;;;6217098;23;20013;-82
2022/06/15 14:39:17;;;;;;;4.73;2.70;;;25.30;97.80;;;;;;6215388;23;20024;-83
2022/06/15 14:41:43;;;;;;;9.57;3.10;;;25.30;98.20;;;;;;6216945;23;20235;-81
2022/06/15 14:44:21;;;;;;;7.85;2.88;;;25.30;96.90;;;;;;6241977;23;20442;-81
2022/06/15 14:46:48;;;;;;;4.53;2.10;;;25.30;97.00;;;;;;6218974;23;20017;-82
2022/06/15 14:49:24;;;;;;;6.80;2.80;;;25.30;96.20;;;;;;6219129;23;20008;-82
2022/06/15 14:51:50;;;;;;;7.35;2.72;;;25.20;96.30;;;;;;6217027;23;20048;-82
2022/06/15 14:54:18;;;;;;;5.13;2.33;;;25.20;95.80;;;;;;6242527;23;20343;-83
2022/06/15 14:56:56;;;;;;;8.75;2.95;;;25.00;96.30;;;;;;6217287;23;20015;-85
2022/06/15 14:59:25;;;;;;;7.00;2.90;;;24.90;95.30;;;;;;6217822;23;20087;-85
2022/06/15 15:02:03;;;;;;;5.90;2.10;;;24.70;96.70;;;;;;6242616;23;20009;-86
2022/06/15 15:04:39;;;;;;;6.70;2.60;;;24.80;97.30;;;;;;6217055;23;20008;-83
2022/06/15 15:09:55;;;;;;;5.40;2.50;;;24.90;97.10;;;;;;6216600;23;20020;-83
2022/06/15 15:12:22;;;;;;;6.13;2.40;;;24.90;97.40;;;;;;6242284;23;20394;-83
2022/06/15 15:14:54;;;;;;;5.32;3.20;;;24.90;98.40;;;;;;6191985;23;20023;-82
2022/06/15 15:17:21;;;;;;;9.52;3.05;;;24.90;98.20;;;;;;6217020;23;20020;-83
2022/06/15 15:19:47;;;;;;;6.03;2.55;;;24.90;98.20;;;;;;6191820;23;20021;-84
2022/06/15 15:22:14;;;;;;;6.18;3.10;;;25.00;98.10;;;;;;6218614;23;20091;-85
2022/06/15 15:25:00;;;;;;;7.10;2.83;;;25.00;97.10;;;;;;6217233;23;20013;-83
2022/06/15 15:36:12;;;;;;;6.68;2.58;;;25.20;95.90;;;;;;6216770;23;20439;-82
2022/06/15 15:38:38;;;;;;;6.40;2.75;;;25.00;95.30;;;;;;6216637;23;20016;-84
2022/06/15 15:41:06;;;;;;;5.03;2.63;;;24.90;95.20;;;;;;6217505;23;20020;-82
2022/06/15 15:43:35;;;;;;;7.07;3.15;;;24.70;95.00;;;;;;6218935;23;20087;-83
2022/06/15 15:46:01;;;;;;;6.60;2.85;;;24.60;95.20;;;;;;6243175;23;20012;-83
2022/06/15 15:48:27;;;;;;;7.22;3.00;;;24.40;96.80;;;;;;6217403;23;20336;-83
2022/06/15 15:50:54;;;;;;;6.75;3.00;;;24.30;97.00;;;;;;6218204;23;20410;-84
2022/06/15 15:53:20;;;;;;;5.68;2.45;;;24.30;97.80;;;;;;6242525;23;20021;-85
2022/06/15 15:55:49;;;;;;;5.18;3.00;;;24.40;97.50;;;;;;6216683;23;20070;-83
2022/06/15 15:58:18;;;;;;;6.50;2.58;;;24.40;97.60;;;;;;6218659;23;20071;-86
2022/06/15 16:00:46;;;;;;;7.05;2.65;;;24.50;96.80;;;;;;6216581;23;20063;-84
2022/06/15 16:03:16;;;;;;;11.85;2.50;;;24.60;97.10;;;;;;6192601;23;20009;-89
2022/06/15 16:05:44;;;;;;;8.93;3.28;;;24.70;97.30;;;;;;6216541;23;20049;-83
2022/06/15 16:08:12;;;;;;;12.43;3.45;;;24.50;96.30;;;;;;6216819;23;20521;-83
2022/06/15 16:10:42;;;;;;;4.25;2.35;;;24.50;96.00;;;;;;6217294;23;20042;-85
2022/06/15 16:13:09;;;;;;;5.60;2.67;;;24.50;96.40;;;;;;6216085;23;20031;-85
2022/06/15 16:15:38;;;;;;;5.82;2.60;;;24.60;96.20;;;;;;6216492;23;20461;-83
2022/06/15 16:18:04;;;;;;;5.97;3.05;;;24.60;96.40;;;;;;6217103;23;20016;-86
2022/06/15 16:20:34;;;;;;;7.00;2.63;;;24.50;95.80;;;;;;6242879;23;20036;-85
2022/06/15 16:23:02;;;;;;;6.90;2.47;;;24.50;95.70;;;;;;6242552;23;20047;-85
2022/06/15 16:25:28;;;;;;;7.78;2.55;;;24.50;95.80;;;;;;6241183;23;20036;-83
2022/06/15 16:27:54;;;;;;;5.65;2.53;;;24.50;95.30;;;;;;6215392;23;20013;-83
2022/06/15 16:30:22;;;;;;;7.53;3.00;;;24.50;95.60;;;;;;6215699;23;20019;-83
2022/06/15 16:32:48;;;;;;;5.78;2.55;;;24.50;95.00;;;;;;6191478;23;20055;-83
2022/06/15 16:35:16;;;;;;;4.38;2.30;;;24.40;94.90;;;;;;6215854;23;20382;-84
2022/06/15 16:37:42;;;;;;;8.40;2.60;;;24.40;94.50;;;;;;6216055;23;20189;-82
2022/06/15 16:40:09;;;;;;;6.97;3.13;;;24.30;94.20;;;;;;6191032;23;20413;-85
2022/06/15 16:42:35;;;;;;;6.13;2.40;;;24.30;94.40;;;;;;6241098;23;20017;-82
2022/06/15 16:45:00;;;;;;;5.60;2.55;;;24.20;95.30;;;;;;6241265;23;20119;-84
2022/06/15 16:47:26;;;;;;;8.27;3.75;;;24.20;94.70;;;;;;6241153;23;20009;-82